Time;durP1;ratioP1;P1;durP2;ratioP2;P2;SDS_P1;SDS_P2;PMS_P1;PMS_P2;Temp;Humidity;BMP_temperature;BMP_pressure;BME280_temperature;BME280_humidity;BME280_pressure;Samples;Min_cycle;Max_cycle;Signal;HPM_P1;HPM_P2
2021/11/10 08:28:53;;;;;;;24.07;16.83;;;9.60;99.90;;;;;;5122623;27;20763;-69
2021/11/10 08:31:19;;;;;;;24.70;17.17;;;9.60;99.90;;;;;;5126164;27;20043;-71
2021/11/10 08:34:09;;;;;;;23.60;16.60;;;9.70;99.90;;;;;;5104265;27;20337;-75
2021/11/10 08:36:35;;;;;;;23.00;15.47;;;9.80;99.90;;;;;;5084259;28;20135;-74
2021/11/10 08:39:01;;;;;;;22.30;15.13;;;9.90;99.90;;;;;;5067454;28;20055;-73
2021/11/10 08:41:26;;;;;;;20.70;16.30;;;10.10;99.90;;;;;;5085378;28;20040;-77
2021/11/10 08:43:52;;;;;;;21.63;14.67;;;10.20;99.90;;;;;;5067431;28;20040;-76
2021/11/10 08:46:19;;;;;;;21.43;14.63;;;10.40;99.90;;;;;;5067482;28;20083;-74
2021/11/10 08:48:46;;;;;;;20.87;13.60;;;10.50;99.90;;;;;;5084804;28;20044;-74
2021/11/10 08:51:12;;;;;;;26.07;16.13;;;10.60;99.90;;;;;;5085468;28;20047;-72
2021/11/10 08:53:38;;;;;;;22.37;15.63;;;10.80;99.90;;;;;;5067791;28;20044;-77
2021/11/10 08:56:04;;;;;;;19.00;14.00;;;10.90;99.90;;;;;;5066604;28;20139;-79
2021/11/10 08:58:29;;;;;;;19.17;13.23;;;11.00;99.90;;;;;;5082951;28;20044;-77
2021/11/10 09:00:56;;;;;;;17.27;13.17;;;11.10;99.90;;;;;;5067366;28;20052;-75
2021/11/10 09:03:23;;;;;;;19.23;13.37;;;11.10;99.90;;;;;;5067084;28;20052;-82
2021/11/10 09:05:49;;;;;;;22.83;13.60;;;11.20;99.90;;;;;;5066917;28;20528;-82
2021/11/10 09:08:16;;;;;;;17.97;12.37;;;11.30;99.90;;;;;;5066864;28;20048;-82
2021/11/10 09:10:42;;;;;;;19.33;13.83;;;11.30;99.90;;;;;;5066673;28;20033;-79
2021/11/10 09:13:08;;;;;;;20.03;12.63;;;11.30;99.90;;;;;;5066719;28;20599;-80
2021/11/10 09:15:34;;;;;;;18.17;12.13;;;11.40;99.90;;;;;;5066183;28;20119;-77
2021/11/10 09:18:02;;;;;;;15.67;12.10;;;11.50;99.90;;;;;;5066017;28;20386;-78
2021/11/10 09:20:29;;;;;;;21.07;13.17;;;11.50;99.50;;;;;;5066660;28;20044;-76
2021/11/10 09:22:55;;;;;;;18.50;12.97;;;11.40;99.40;;;;;;5084885;28;20108;-78
2021/11/10 09:25:22;;;;;;;19.30;13.33;;;11.40;99.30;;;;;;5065664;28;20048;-79
2021/11/10 09:27:49;;;;;;;21.37;14.27;;;11.40;99.30;;;;;;5066796;28;20113;-76
2021/11/10 09:30:18;;;;;;;17.83;12.47;;;11.30;99.20;;;;;;5066437;28;20040;-77
2021/11/10 09:32:46;;;;;;;17.60;13.77;;;11.30;99.20;;;;;;5065111;28;20159;-78
2021/11/10 09:35:13;;;;;;;19.23;13.70;;;11.40;99.10;;;;;;5065813;28;20477;-78
2021/11/10 09:37:39;;;;;;;20.63;13.87;;;11.30;99.00;;;;;;5084867;28;20558;-77
2021/11/10 09:40:07;;;;;;;18.60;13.03;;;11.30;98.70;;;;;;5055992;28;20045;-78
2021/11/10 09:42:35;;;;;;;19.77;12.37;;;11.30;98.80;;;;;;5063703;28;20045;-78
2021/11/10 09:45:02;;;;;;;16.00;11.73;;;11.40;98.80;;;;;;5052994;28;20241;-78
2021/11/10 09:47:29;;;;;;;19.10;12.53;;;11.40;98.60;;;;;;5051276;28;20080;-79
2021/11/10 09:49:54;;;;;;;21.33;12.60;;;11.50;98.60;;;;;;5033661;28;20052;-80
2021/11/10 09:52:20;;;;;;;17.77;12.13;;;11.60;98.50;;;;;;5049810;28;20081;-79
2021/11/10 09:54:46;;;;;;;20.20;12.70;;;11.60;98.40;;;;;;5038329;28;20533;-76
2021/11/10 09:57:11;;;;;;;21.13;13.00;;;11.70;98.20;;;;;;5071088;28;20139;-78
2021/11/10 09:59:38;;;;;;;21.47;13.03;;;11.70;97.90;;;;;;5068657;28;20094;-75
2021/11/10 10:02:11;;;;;;;18.63;11.70;;;11.70;97.80;;;;;;5070554;28;20043;-76
2021/11/10 10:04:40;;;;;;;22.83;13.13;;;11.70;97.80;;;;;;5070494;28;20079;-76
2021/11/10 10:07:07;;;;;;;23.83;11.47;;;11.70;97.90;;;;;;5051861;28;20045;-76
2021/11/10 10:09:33;;;;;;;19.83;12.57;;;11.80;97.70;;;;;;5070333;28;20043;-75
2021/11/10 10:11:59;;;;;;;18.90;11.50;;;11.80;97.70;;;;;;5052673;28;20155;-75
2021/11/10 10:14:24;;;;;;;21.90;12.20;;;11.90;97.60;;;;;;5052157;28;20127;-75
2021/11/10 10:16:50;;;;;;;21.03;11.97;;;11.90;97.30;;;;;;5070649;28;20040;-75
2021/11/10 10:19:16;;;;;;;23.83;12.20;;;11.90;97.20;;;;;;5069860;28;20052;-76
2021/11/10 10:21:43;;;;;;;17.97;11.10;;;11.90;97.20;;;;;;5051574;28;20473;-74
2021/11/10 10:24:13;;;;;;;20.07;11.37;;;12.00;97.10;;;;;;5052833;28;20123;-73
2021/11/10 10:26:39;;;;;;;16.53;11.23;;;12.00;96.80;;;;;;5052204;28;20136;-76
2021/11/10 10:29:09;;;;;;;22.47;11.33;;;12.00;96.80;;;;;;5051672;28;20127;-75
2021/11/10 10:31:37;;;;;;;19.83;11.77;;;12.00;96.80;;;;;;5051784;28;20471;-75
2021/11/10 10:34:08;;;;;;;18.00;12.20;;;12.00;96.70;;;;;;5068598;28;20052;-75
2021/11/10 10:36:37;;;;;;;24.48;11.77;;;12.00;96.50;;;;;;5069112;28;20055;-74
2021/11/10 10:39:18;;;;;;;21.13;11.87;;;12.00;96.50;;;;;;5069206;28;20086;-76
2021/11/10 10:41:51;;;;;;;19.17;12.57;;;12.00;96.30;;;;;;5051410;28;20087;-76
2021/11/10 10:44:30;;;;;;;24.17;13.40;;;11.90;96.30;;;;;;5052095;28;20378;-75
2021/11/10 15:48:07;;;;;;;24.57;12.70;;;10.70;97.40;;;;;;5101165;27;20331;-77
2021/11/10 19:08:52;;;;;;;77.97;40.87;;;9.40;99.90;;;;;;5100893;27;20333;-76
2021/11/10 19:11:25;;;;;;;73.07;43.47;;;9.40;99.90;;;;;;5084537;28;20041;-75
2021/11/10 19:14:18;;;;;;;80.20;46.90;;;9.40;99.90;;;;;;5083746;28;20129;-76
2021/11/10 19:16:56;;;;;;;71.13;46.10;;;9.40;99.90;;;;;;5065473;28;20451;-75
2021/11/10 19:22:10;;;;;;;74.37;42.93;;;9.50;99.90;;;;;;5027888;28;20078;-76
2021/11/10 19:24:37;;;;;;;71.00;42.97;;;9.50;99.90;;;;;;5066736;28;20139;-81
2021/11/10 19:27:07;;;;;;;75.00;44.63;;;9.50;99.90;;;;;;5066369;28;20056;-77
2021/11/10 19:29:34;;;;;;;57.23;38.63;;;9.60;99.90;;;;;;5065302;28;20063;-76
2021/11/10 19:31:59;;;;;;;67.70;40.40;;;9.60;99.90;;;;;;5084603;28;20048;-79
2021/11/10 19:34:25;;;;;;;68.87;40.53;;;9.70;99.90;;;;;;5083989;28;20058;-75
2021/11/10 19:36:54;;;;;;;60.27;37.70;;;9.70;99.90;;;;;;5083257;28;20472;-76
2021/11/10 19:39:20;;;;;;;55.00;36.20;;;9.70;99.90;;;;;;5065299;28;20040;-75
2021/11/10 19:41:46;;;;;;;55.40;35.13;;;9.80;99.90;;;;;;5066553;28;20044;-76
2021/11/10 19:44:14;;;;;;;55.40;35.57;;;9.80;99.90;;;;;;5064524;28;20193;-77
2021/11/10 19:46:42;;;;;;;57.30;34.47;;;9.80;99.90;;;;;;5065383;28;20043;-76
2021/11/10 19:49:09;;;;;;;61.60;35.43;;;9.80;99.90;;;;;;5065834;28;20135;-77
2021/11/10 19:51:35;;;;;;;52.70;33.60;;;9.80;99.90;;;;;;5065426;28;20049;-76
2021/11/10 19:54:03;;;;;;;46.20;34.33;;;9.80;99.90;;;;;;5065690;28;20594;-77
2021/11/10 19:56:29;;;;;;;54.23;34.97;;;9.80;99.90;;;;;;5083261;28;20094;-78
2021/11/10 19:58:55;;;;;;;51.97;36.97;;;9.80;99.90;;;;;;5065247;28;20143;-77
2021/11/10 20:01:29;;;;;;;51.43;35.30;;;9.90;99.90;;;;;;5065293;28;20162;-77
2021/11/10 22:58:03;;;;;;;92.10;55.27;;;9.50;99.90;;;;;;5062520;28;20903;-78
2021/11/10 23:00:37;;;;;;;84.83;56.10;;;9.50;99.90;;;;;;5050427;28;20473;-78
2021/11/10 23:03:03;;;;;;;87.40;56.23;;;9.50;99.90;;;;;;5056632;28;20041;-78
2021/11/10 23:05:29;;;;;;;80.80;54.20;;;9.60;99.90;;;;;;5054728;28;20095;-76
2021/11/10 23:07:57;;;;;;;91.83;57.50;;;9.60;99.90;;;;;;5053505;28;20060;-77
2021/11/10 23:10:23;;;;;;;82.63;57.67;;;9.60;99.90;;;;;;5055277;28;20040;-78
2021/11/10 23:12:49;;;;;;;101.73;58.43;;;9.60;99.90;;;;;;5056242;28;20045;-77
2021/11/10 23:15:18;;;;;;;75.70;54.83;;;9.60;99.90;;;;;;5055166;28;20400;-79
2021/11/10 23:17:44;;;;;;;75.63;53.50;;;9.60;99.90;;;;;;5049002;28;20048;-77
2021/11/10 23:20:13;;;;;;;83.67;54.47;;;9.70;99.90;;;;;;5038546;28;20041;-75
2021/11/10 23:22:39;;;;;;;75.33;52.90;;;9.70;99.90;;;;;;5042377;28;20449;-78
2021/11/10 23:25:06;;;;;;;74.87;48.37;;;9.70;99.90;;;;;;5046933;28;20057;-77
2021/11/10 23:27:36;;;;;;;73.93;50.20;;;9.70;99.90;;;;;;5047484;28;20098;-77
2021/11/10 23:30:04;;;;;;;76.37;50.30;;;9.70;99.90;;;;;;5047368;28;20128;-77
2021/11/10 23:32:30;;;;;;;73.23;48.83;;;9.70;99.90;;;;;;5048734;28;20560;-77
2021/11/10 23:34:56;;;;;;;74.07;50.40;;;9.80;99.90;;;;;;5047414;28;20049;-77
2021/11/10 23:37:21;;;;;;;74.67;49.00;;;9.80;99.90;;;;;;5047506;28;20056;-77
2021/11/10 23:39:47;;;;;;;78.53;48.83;;;9.80;99.90;;;;;;5047577;28;20111;-76
2021/11/10 23:42:13;;;;;;;75.83;46.43;;;9.80;99.90;;;;;;5047169;28;20045;-77
2021/11/10 23:44:42;;;;;;;74.10;46.30;;;9.80;99.90;;;;;;5049006;28;20098;-76
2021/11/10 23:47:08;;;;;;;69.03;46.77;;;9.70;99.90;;;;;;5047649;28;20124;-76
